Flagship Orchid — V7YE4 — position and weather

sailwx.info

Track history (hours):
 
Tides and Currents Weather Stations Pressure Air Temp Water Temp Dewpoint Dewpoint Depression Visibility Wind Speed Wind Dir Waves Ship Positions

Flagship Orchid

Last reported at 2017-Dec-11 00:10 UTC. Time now 2017-Dec-11 02:33 UTC.
Position N 05°58' E 001°13'.

Length 228 m; draft 10.6 m.

Type: Ship. MMSI: 538004640.

Date/timePositionNaut miles runAvg speedWind from/ knotsBaromVisibWave heightAir tempDewpointWater temp
2017-Dec-11 00:10N 05°58' E 001°13'0 0.0
2017-Dec-10 23:49N 05°58' E 001°13'0 0.0
2017-Dec-10 23:10N 05°58' E 001°13'0 0.0
2017-Dec-10 22:55N 05°58' E 001°13'0 0.0
2017-Dec-10 22:28N 05°58' E 001°13'0 0.0
2017-Dec-10 21:58N 05°58' E 001°13'0 0.0
2017-Dec-10 21:25N 05°58' E 001°13'0 0.0
2017-Dec-10 20:52N 05°58' E 001°13'0 0.0
2017-Dec-10 20:19N 05°58' E 001°13'0 0.0
2017-Dec-10 19:10N 05°58' E 001°13'0 0.0
2017-Dec-10 18:04N 05°58' E 001°13'0 0.6
2017-Dec-10 18:00N 05°58' E 001°13'1 1.3
2017-Dec-10 17:30N 05°58' E 001°12'1 1.2
2017-Dec-10 16:59N 05°59' E 001°12'2 3.2
2017-Dec-10 16:30N 05°58' E 001°14'0 0.0
2017-Dec-10 10:01N 05°58' E 001°13'0 0.7
2017-Dec-10 09:44N 05°58' E 001°14'0 0.9
2017-Dec-10 09:15N 05°58' E 001°14'1 3.6
2017-Dec-10 09:00N 05°57' E 001°15'1 0.9
2017-Dec-10 08:26N 05°58' E 001°15'2 4.3
2017-Dec-10 08:00N 05°59' E 001°15'0 0.8
2017-Dec-10 07:28N 05°60' E 001°15'0 0.0
2017-Dec-10 06:55N 05°60' E 001°15'0 0.0
2017-Dec-10 04:22N 05°60' E 001°15'0 0.0
2017-Dec-10 03:58N 05°60' E 001°15'3 0.1
2017-Dec-09 06:48N 05°57' E 001°14'  
2017-Dec-04 05:48N 06°00' E 001°15'0 0.0
2017-Dec-04 05:30N 06°00' E 001°15'0 0.0
2017-Dec-04 04:27N 06°00' E 001°15'0 0.0
2017-Dec-04 04:00N 06°00' E 001°15'0 0.1
2017-Dec-04 03:30N 06°00' E 001°15'0 0.0
2017-Dec-04 02:54N 06°00' E 001°15'0 0.0
2017-Dec-04 02:24N 06°00' E 001°15'0 0.0
2017-Dec-04 01:54N 06°00' E 001°15'0 0.0
2017-Dec-04 01:30N 06°00' E 001°15'0 0.0
2017-Dec-04 01:00N 06°00' E 001°15'0 0.0
2017-Dec-04 00:24N 06°00' E 001°15'0 0.0
2017-Dec-04 00:00N 06°00' E 001°15'0 0.0
2017-Dec-03 23:09N 06°00' E 001°15'0 0.1
2017-Dec-03 23:00N 06°00' E 001°15'0 0.0
2017-Dec-03 20:09N 06°00' E 001°15'0 0.0
2017-Dec-03 18:21N 06°00' E 001°15'0 0.0
2017-Dec-03 18:00N 06°00' E 001°15'0 0.0
2017-Dec-02 17:55N 06°00' E 001°15'1 1.8
2017-Dec-02 17:24N 05°60' E 001°16'1 1.0
2017-Dec-02 16:18N 05°59' E 001°16'  
Track history (hours):
 
Tides and Currents Weather Stations Pressure Air Temp Water Temp Dewpoint Dewpoint Depression Visibility Wind Speed Wind Dir Waves Ship Positions

Flagship Orchid

Last reported at 2017-Dec-11 00:10 UTC. Time now 2017-Dec-11 02:33 UTC.
Position N 05°58' E 001°13'.

Length 228 m; draft 10.6 m.

Type: Ship. MMSI: 538004640.

Date/timePositionNaut miles runAvg speedWind from/ knotsBaromVisibWave heightAir tempDewpointWater temp
2017-Dec-11 00:10N 05°58' E 001°13'0 0.0
2017-Dec-10 23:49N 05°58' E 001°13'0 0.0
2017-Dec-10 23:10N 05°58' E 001°13'0 0.0
2017-Dec-10 22:55N 05°58' E 001°13'0 0.0
2017-Dec-10 22:28N 05°58' E 001°13'0 0.0
2017-Dec-10 21:58N 05°58' E 001°13'0 0.0
2017-Dec-10 21:25N 05°58' E 001°13'0 0.0
2017-Dec-10 20:52N 05°58' E 001°13'0 0.0
2017-Dec-10 20:19N 05°58' E 001°13'0 0.0
2017-Dec-10 19:10N 05°58' E 001°13'0 0.0
2017-Dec-10 18:04N 05°58' E 001°13'0 0.6
2017-Dec-10 18:00N 05°58' E 001°13'1 1.3
2017-Dec-10 17:30N 05°58' E 001°12'1 1.2
2017-Dec-10 16:59N 05°59' E 001°12'2 3.2
2017-Dec-10 16:30N 05°58' E 001°14'0 0.0
2017-Dec-10 10:01N 05°58' E 001°13'0 0.7
2017-Dec-10 09:44N 05°58' E 001°14'0 0.9
2017-Dec-10 09:15N 05°58' E 001°14'1 3.6
2017-Dec-10 09:00N 05°57' E 001°15'1 0.9
2017-Dec-10 08:26N 05°58' E 001°15'2 4.3
2017-Dec-10 08:00N 05°59' E 001°15'0 0.8
2017-Dec-10 07:28N 05°60' E 001°15'0 0.0
2017-Dec-10 06:55N 05°60' E 001°15'0 0.0
2017-Dec-10 04:22N 05°60' E 001°15'0 0.0
2017-Dec-10 03:58N 05°60' E 001°15'3 0.1
2017-Dec-09 06:48N 05°57' E 001°14'  
2017-Dec-04 05:48N 06°00' E 001°15'0 0.0
2017-Dec-04 05:30N 06°00' E 001°15'0 0.0
2017-Dec-04 04:27N 06°00' E 001°15'0 0.0
2017-Dec-04 04:00N 06°00' E 001°15'0 0.1
2017-Dec-04 03:30N 06°00' E 001°15'0 0.0
2017-Dec-04 02:54N 06°00' E 001°15'0 0.0
2017-Dec-04 02:24N 06°00' E 001°15'0 0.0
2017-Dec-04 01:54N 06°00' E 001°15'0 0.0
2017-Dec-04 01:30N 06°00' E 001°15'0 0.0
2017-Dec-04 01:00N 06°00' E 001°15'0 0.0
2017-Dec-04 00:24N 06°00' E 001°15'0 0.0
2017-Dec-04 00:00N 06°00' E 001°15'0 0.0
2017-Dec-03 23:09N 06°00' E 001°15'0 0.1
2017-Dec-03 23:00N 06°00' E 001°15'0 0.0
2017-Dec-03 20:09N 06°00' E 001°15'0 0.0
2017-Dec-03 18:21N 06°00' E 001°15'0 0.0
2017-Dec-03 18:00N 06°00' E 001°15'0 0.0
2017-Dec-02 17:55N 06°00' E 001°15'1 1.8
2017-Dec-02 17:24N 05°60' E 001°16'1 1.0
2017-Dec-02 16:18N 05°59' E 001°16'  

Dump ship's entire track history